sensor_id;sensor_type;location;lat;lon;timestamp;P1;durP1;ratioP1;P2;durP2;ratioP2
76103;SDS011;64831;44.870;37.336;2022-11-14T00:01:48;4.47;;;2.65;;
76103;SDS011;64831;44.870;37.336;2022-11-14T00:04:33;3.90;;;2.60;;
76103;SDS011;64831;44.870;37.336;2022-11-14T00:07:17;4.60;;;2.45;;
76103;SDS011;64831;44.870;37.336;2022-11-14T00:10:01;6.57;;;2.67;;
76103;SDS011;64831;44.870;37.336;2022-11-14T00:12:47;4.20;;;2.78;;
76103;SDS011;64831;44.870;37.336;2022-11-14T00:15:31;3.47;;;2.40;;
76103;SDS011;64831;44.870;37.336;2022-11-14T00:18:16;5.30;;;2.85;;
76103;SDS011;64831;44.870;37.336;2022-11-14T00:21:00;4.28;;;2.78;;
76103;SDS011;64831;44.870;37.336;2022-11-14T00:23:45;5.40;;;2.60;;
76103;SDS011;64831;44.870;37.336;2022-11-14T00:26:29;7.63;;;3.05;;
76103;SDS011;64831;44.870;37.336;2022-11-14T00:29:14;4.93;;;2.88;;
76103;SDS011;64831;44.870;37.336;2022-11-14T00:31:58;8.25;;;2.75;;
76103;SDS011;64831;44.870;37.336;2022-11-14T00:34:43;5.82;;;3.08;;
76103;SDS011;64831;44.870;37.336;2022-11-14T00:37:27;5.38;;;2.67;;
76103;SDS011;64831;44.870;37.336;2022-11-14T00:40:12;4.78;;;2.63;;
76103;SDS011;64831;44.870;37.336;2022-11-14T00:42:57;5.13;;;2.72;;
76103;SDS011;64831;44.870;37.336;2022-11-14T00:45:45;4.47;;;2.70;;
76103;SDS011;64831;44.870;37.336;2022-11-14T00:48:30;6.40;;;2.80;;
76103;SDS011;64831;44.870;37.336;2022-11-14T00:51:14;4.75;;;2.75;;
76103;SDS011;64831;44.870;37.336;2022-11-14T00:53:58;4.68;;;2.72;;
76103;SDS011;64831;44.870;37.336;2022-11-14T00:56:43;5.47;;;3.30;;
76103;SDS011;64831;44.870;37.336;2022-11-14T00:59:27;5.38;;;3.08;;
76103;SDS011;64831;44.870;37.336;2022-11-14T01:02:12;9.00;;;3.90;;
76103;SDS011;64831;44.870;37.336;2022-11-14T01:04:56;7.18;;;3.22;;
76103;SDS011;64831;44.870;37.336;2022-11-14T01:07:41;7.90;;;3.63;;
76103;SDS011;64831;44.870;37.336;2022-11-14T01:10:25;7.97;;;3.55;;
76103;SDS011;64831;44.870;37.336;2022-11-14T01:13:10;9.18;;;3.78;;
76103;SDS011;64831;44.870;37.336;2022-11-14T01:15:58;6.32;;;3.95;;
76103;SDS011;64831;44.870;37.336;2022-11-14T01:18:44;7.30;;;3.63;;
76103;SDS011;64831;44.870;37.336;2022-11-14T01:21:28;10.07;;;4.45;;
76103;SDS011;64831;44.870;37.336;2022-11-14T01:24:13;7.05;;;4.15;;
76103;SDS011;64831;44.870;37.336;2022-11-14T01:26:57;10.98;;;4.03;;
76103;SDS011;64831;44.870;37.336;2022-11-14T01:29:42;9.27;;;4.40;;
76103;SDS011;64831;44.870;37.336;2022-11-14T01:32:26;9.68;;;3.97;;
76103;SDS011;64831;44.870;37.336;2022-11-14T01:35:10;7.32;;;3.97;;
76103;SDS011;64831;44.870;37.336;2022-11-14T01:37:55;7.30;;;4.05;;
76103;SDS011;64831;44.870;37.336;2022-11-14T01:40:40;8.52;;;4.68;;
76103;SDS011;64831;44.870;37.336;2022-11-14T01:43:27;9.82;;;4.20;;
76103;SDS011;64831;44.870;37.336;2022-11-14T01:46:18;9.13;;;4.18;;
76103;SDS011;64831;44.870;37.336;2022-11-14T01:49:13;6.53;;;4.10;;
76103;SDS011;64831;44.870;37.336;2022-11-14T01:52:02;8.60;;;4.70;;
76103;SDS011;64831;44.870;37.336;2022-11-14T01:54:53;7.43;;;4.45;;
76103;SDS011;64831;44.870;37.336;2022-11-14T01:57:41;7.97;;;4.45;;
76103;SDS011;64831;44.870;37.336;2022-11-14T02:00:28;8.07;;;4.70;;
76103;SDS011;64831;44.870;37.336;2022-11-14T02:03:13;7.90;;;4.53;;
76103;SDS011;64831;44.870;37.336;2022-11-14T02:05:59;9.18;;;4.65;;
76103;SDS011;64831;44.870;37.336;2022-11-14T02:08:45;7.97;;;4.43;;
76103;SDS011;64831;44.870;37.336;2022-11-14T02:11:32;7.70;;;4.55;;
76103;SDS011;64831;44.870;37.336;2022-11-14T02:14:20;9.00;;;4.50;;
76103;SDS011;64831;44.870;37.336;2022-11-14T02:17:05;8.70;;;4.35;;
76103;SDS011;64831;44.870;37.336;2022-11-14T02:19:50;9.38;;;4.30;;
76103;SDS011;64831;44.870;37.336;2022-11-14T02:22:39;9.88;;;4.57;;
76103;SDS011;64831;44.870;37.336;2022-11-14T02:25:25;10.02;;;4.75;;
76103;SDS011;64831;44.870;37.336;2022-11-14T02:28:09;8.23;;;4.03;;
76103;SDS011;64831;44.870;37.336;2022-11-14T02:30:54;6.97;;;4.13;;
76103;SDS011;64831;44.870;37.336;2022-11-14T02:33:38;10.95;;;4.80;;
76103;SDS011;64831;44.870;37.336;2022-11-14T02:36:23;8.18;;;4.70;;
76103;SDS011;64831;44.870;37.336;2022-11-14T02:39:08;9.68;;;4.78;;
76103;SDS011;64831;44.870;37.336;2022-11-14T02:41:53;8.18;;;4.32;;
76103;SDS011;64831;44.870;37.336;2022-11-14T02:44:37;10.07;;;4.97;;
76103;SDS011;64831;44.870;37.336;2022-11-14T02:47:22;13.35;;;4.65;;
76103;SDS011;64831;44.870;37.336;2022-11-14T02:50:07;11.88;;;4.75;;
76103;SDS011;64831;44.870;37.336;2022-11-14T02:52:52;10.63;;;4.63;;
76103;SDS011;64831;44.870;37.336;2022-11-14T02:55:37;7.25;;;4.53;;
76103;SDS011;64831;44.870;37.336;2022-11-14T02:58:21;9.85;;;4.60;;
76103;SDS011;64831;44.870;37.336;2022-11-14T03:01:06;9.57;;;4.60;;
76103;SDS011;64831;44.870;37.336;2022-11-14T03:03:50;8.00;;;4.25;;
76103;SDS011;64831;44.870;37.336;2022-11-14T03:06:35;9.45;;;4.60;;
76103;SDS011;64831;44.870;37.336;2022-11-14T03:09:20;8.38;;;4.70;;
76103;SDS011;64831;44.870;37.336;2022-11-14T03:12:04;8.55;;;4.68;;
76103;SDS011;64831;44.870;37.336;2022-11-14T03:14:50;10.25;;;4.18;;
76103;SDS011;64831;44.870;37.336;2022-11-14T03:17:34;9.15;;;4.53;;
76103;SDS011;64831;44.870;37.336;2022-11-14T03:20:19;9.43;;;4.60;;
76103;SDS011;64831;44.870;37.336;2022-11-14T03:23:03;10.90;;;4.90;;
76103;SDS011;64831;44.870;37.336;2022-11-14T03:25:48;9.02;;;4.10;;
76103;SDS011;64831;44.870;37.336;2022-11-14T03:28:32;7.15;;;4.13;;
76103;SDS011;64831;44.870;37.336;2022-11-14T03:31:17;9.48;;;4.10;;
76103;SDS011;64831;44.870;37.336;2022-11-14T03:34:02;11.00;;;4.68;;
76103;SDS011;64831;44.870;37.336;2022-11-14T03:36:46;8.52;;;4.43;;
76103;SDS011;64831;44.870;37.336;2022-11-14T03:39:30;8.85;;;4.40;;
76103;SDS011;64831;44.870;37.336;2022-11-14T03:42:15;9.07;;;4.10;;
76103;SDS011;64831;44.870;37.336;2022-11-14T03:45:00;10.73;;;4.57;;
76103;SDS011;64831;44.870;37.336;2022-11-14T03:47:44;10.68;;;4.53;;
76103;SDS011;64831;44.870;37.336;2022-11-14T03:50:29;8.30;;;4.30;;
76103;SDS011;64831;44.870;37.336;2022-11-14T03:53:13;6.53;;;4.05;;
76103;SDS011;64831;44.870;37.336;2022-11-14T03:55:58;10.65;;;4.50;;
76103;SDS011;64831;44.870;37.336;2022-11-14T03:58:42;8.55;;;4.28;;
76103;SDS011;64831;44.870;37.336;2022-11-14T04:01:26;11.13;;;4.65;;
76103;SDS011;64831;44.870;37.336;2022-11-14T04:04:12;9.27;;;4.20;;
76103;SDS011;64831;44.870;37.336;2022-11-14T04:06:57;9.63;;;4.05;;
76103;SDS011;64831;44.870;37.336;2022-11-14T04:09:41;9.55;;;4.40;;
76103;SDS011;64831;44.870;37.336;2022-11-14T04:12:27;8.80;;;4.75;;
76103;SDS011;64831;44.870;37.336;2022-11-14T04:15:12;9.38;;;4.78;;
76103;SDS011;64831;44.870;37.336;2022-11-14T04:17:56;9.95;;;4.78;;
76103;SDS011;64831;44.870;37.336;2022-11-14T04:20:41;8.95;;;4.88;;
76103;SDS011;64831;44.870;37.336;2022-11-14T04:23:25;9.57;;;5.13;;
76103;SDS011;64831;44.870;37.336;2022-11-14T04:26:10;9.57;;;4.70;;
76103;SDS011;64831;44.870;37.336;2022-11-14T04:28:54;13.98;;;4.65;;
76103;SDS011;64831;44.870;37.336;2022-11-14T04:31:39;10.10;;;5.03;;
76103;SDS011;64831;44.870;37.336;2022-11-14T04:34:23;9.98;;;5.10;;
76103;SDS011;64831;44.870;37.336;2022-11-14T04:37:07;9.80;;;5.15;;
76103;SDS011;64831;44.870;37.336;2022-11-14T04:39:52;11.23;;;4.95;;
76103;SDS011;64831;44.870;37.336;2022-11-14T04:42:41;10.27;;;4.97;;
76103;SDS011;64831;44.870;37.336;2022-11-14T04:45:25;12.35;;;5.10;;
76103;SDS011;64831;44.870;37.336;2022-11-14T04:48:10;13.18;;;5.70;;
76103;SDS011;64831;44.870;37.336;2022-11-14T04:50:55;11.15;;;5.45;;
76103;SDS011;64831;44.870;37.336;2022-11-14T04:53:39;14.07;;;5.88;;
76103;SDS011;64831;44.870;37.336;2022-11-14T04:56:24;12.70;;;6.05;;
76103;SDS011;64831;44.870;37.336;2022-11-14T04:59:08;13.48;;;6.10;;
76103;SDS011;64831;44.870;37.336;2022-11-14T05:01:53;15.57;;;5.80;;
76103;SDS011;64831;44.870;37.336;2022-11-14T05:04:37;12.20;;;5.80;;
76103;SDS011;64831;44.870;37.336;2022-11-14T05:07:21;12.65;;;5.68;;
76103;SDS011;64831;44.870;37.336;2022-11-14T05:10:06;14.20;;;6.13;;
76103;SDS011;64831;44.870;37.336;2022-11-14T05:12:52;9.07;;;5.30;;
76103;SDS011;64831;44.870;37.336;2022-11-14T05:15:37;13.65;;;5.65;;
76103;SDS011;64831;44.870;37.336;2022-11-14T05:18:22;16.25;;;6.20;;
76103;SDS011;64831;44.870;37.336;2022-11-14T05:21:09;15.95;;;6.45;;
76103;SDS011;64831;44.870;37.336;2022-11-14T05:23:56;12.38;;;5.97;;
76103;SDS011;64831;44.870;37.336;2022-11-14T05:26:41;13.45;;;6.03;;
76103;SDS011;64831;44.870;37.336;2022-11-14T05:29:25;13.73;;;6.35;;
76103;SDS011;64831;44.870;37.336;2022-11-14T05:32:10;16.02;;;7.05;;
76103;SDS011;64831;44.870;37.336;2022-11-14T05:34:54;10.63;;;6.35;;
76103;SDS011;64831;44.870;37.336;2022-11-14T05:37:39;14.48;;;7.03;;
76103;SDS011;64831;44.870;37.336;2022-11-14T05:40:23;10.63;;;6.00;;
76103;SDS011;64831;44.870;37.336;2022-11-14T05:43:08;13.80;;;6.53;;
76103;SDS011;64831;44.870;37.336;2022-11-14T05:45:52;12.65;;;6.07;;
76103;SDS011;64831;44.870;37.336;2022-11-14T05:48:37;10.68;;;5.97;;
76103;SDS011;64831;44.870;37.336;2022-11-14T05:51:22;11.38;;;6.15;;
76103;SDS011;64831;44.870;37.336;2022-11-14T05:54:06;10.40;;;5.88;;
76103;SDS011;64831;44.870;37.336;2022-11-14T05:56:51;10.25;;;6.22;;
76103;SDS011;64831;44.870;37.336;2022-11-14T05:59:35;13.80;;;6.80;;
76103;SDS011;64831;44.870;37.336;2022-11-14T06:02:20;15.30;;;7.00;;
76103;SDS011;64831;44.870;37.336;2022-11-14T06:05:04;12.43;;;5.72;;
76103;SDS011;64831;44.870;37.336;2022-11-14T06:07:56;14.30;;;7.25;;
76103;SDS011;64831;44.870;37.336;2022-11-14T06:10:41;15.05;;;6.80;;
76103;SDS011;64831;44.870;37.336;2022-11-14T06:13:26;15.00;;;7.72;;
76103;SDS011;64831;44.870;37.336;2022-11-14T06:16:17;13.07;;;6.90;;
76103;SDS011;64831;44.870;37.336;2022-11-14T06:19:03;16.83;;;8.63;;
76103;SDS011;64831;44.870;37.336;2022-11-14T06:21:48;15.57;;;8.40;;
76103;SDS011;64831;44.870;37.336;2022-11-14T06:24:32;14.10;;;7.50;;
76103;SDS011;64831;44.870;37.336;2022-11-14T06:27:17;15.43;;;8.25;;
76103;SDS011;64831;44.870;37.336;2022-11-14T06:30:01;14.32;;;7.93;;
76103;SDS011;64831;44.870;37.336;2022-11-14T06:32:45;14.77;;;8.00;;
76103;SDS011;64831;44.870;37.336;2022-11-14T06:35:30;14.20;;;7.72;;
76103;SDS011;64831;44.870;37.336;2022-11-14T06:38:15;12.52;;;7.40;;
76103;SDS011;64831;44.870;37.336;2022-11-14T06:41:07;19.45;;;8.40;;
76103;SDS011;64831;44.870;37.336;2022-11-14T06:43:51;15.20;;;7.95;;
76103;SDS011;64831;44.870;37.336;2022-11-14T06:46:37;14.77;;;8.93;;
76103;SDS011;64831;44.870;37.336;2022-11-14T06:49:21;14.40;;;7.70;;
76103;SDS011;64831;44.870;37.336;2022-11-14T06:52:07;12.38;;;6.78;;
76103;SDS011;64831;44.870;37.336;2022-11-14T06:54:52;13.13;;;7.15;;
76103;SDS011;64831;44.870;37.336;2022-11-14T06:57:36;16.67;;;9.50;;
76103;SDS011;64831;44.870;37.336;2022-11-14T07:00:21;14.05;;;7.60;;
76103;SDS011;64831;44.870;37.336;2022-11-14T07:03:05;15.23;;;7.80;;
76103;SDS011;64831;44.870;37.336;2022-11-14T13:54:13;17.92;;;7.88;;
76103;SDS011;64831;44.870;37.336;2022-11-14T14:00:07;13.38;;;7.00;;
76103;SDS011;64831;44.870;37.336;2022-11-14T14:06:06;19.80;;;7.78;;
76103;SDS011;64831;44.870;37.336;2022-11-14T14:09:03;14.40;;;7.13;;
76103;SDS011;64831;44.870;37.336;2022-11-14T14:12:49;13.30;;;6.75;;
76103;SDS011;64831;44.870;37.336;2022-11-14T14:15:11;20.80;;;7.70;;
76103;SDS011;64831;44.870;37.336;2022-11-14T14:18:04;17.40;;;7.85;;
76103;SDS011;64831;44.870;37.336;2022-11-14T14:24:13;19.98;;;7.43;;
76103;SDS011;64831;44.870;37.336;2022-11-14T14:30:14;23.52;;;7.97;;
76103;SDS011;64831;44.870;37.336;2022-11-14T14:33:10;24.25;;;8.77;;
76103;SDS011;64831;44.870;37.336;2022-11-14T14:35:56;18.05;;;8.23;;
76103;SDS011;64831;44.870;37.336;2022-11-14T14:38:40;17.85;;;7.90;;
76103;SDS011;64831;44.870;37.336;2022-11-14T14:41:25;21.05;;;8.25;;
76103;SDS011;64831;44.870;37.336;2022-11-14T14:44:22;18.63;;;8.50;;
76103;SDS011;64831;44.870;37.336;2022-11-14T14:47:13;22.95;;;10.07;;
76103;SDS011;64831;44.870;37.336;2022-11-14T14:50:04;21.13;;;8.77;;
76103;SDS011;64831;44.870;37.336;2022-11-14T14:52:57;24.40;;;8.63;;
76103;SDS011;64831;44.870;37.336;2022-11-14T14:55:50;20.90;;;8.80;;
76103;SDS011;64831;44.870;37.336;2022-11-14T14:58:42;19.17;;;8.65;;
76103;SDS011;64831;44.870;37.336;2022-11-14T15:01:33;25.52;;;10.10;;
76103;SDS011;64831;44.870;37.336;2022-11-14T15:04:18;26.52;;;12.07;;
76103;SDS011;64831;44.870;37.336;2022-11-14T15:07:05;28.75;;;11.25;;
76103;SDS011;64831;44.870;37.336;2022-11-14T15:10:04;28.80;;;11.60;;
76103;SDS011;64831;44.870;37.336;2022-11-14T15:12:50;36.22;;;13.77;;
76103;SDS011;64831;44.870;37.336;2022-11-14T15:15:36;33.83;;;13.98;;
76103;SDS011;64831;44.870;37.336;2022-11-14T15:18:28;38.00;;;13.70;;
76103;SDS011;64831;44.870;37.336;2022-11-14T15:21:22;26.80;;;11.80;;
76103;SDS011;64831;44.870;37.336;2022-11-14T15:24:16;34.70;;;12.15;;
76103;SDS011;64831;44.870;37.336;2022-11-14T15:27:03;39.38;;;14.85;;
76103;SDS011;64831;44.870;37.336;2022-11-14T15:30:02;34.03;;;12.77;;
76103;SDS011;64831;44.870;37.336;2022-11-14T15:32:58;26.85;;;11.88;;
76103;SDS011;64831;44.870;37.336;2022-11-14T15:35:43;36.05;;;13.77;;
76103;SDS011;64831;44.870;37.336;2022-11-14T15:38:28;33.00;;;13.05;;
76103;SDS011;64831;44.870;37.336;2022-11-14T15:41:19;40.83;;;13.27;;
76103;SDS011;64831;44.870;37.336;2022-11-14T15:44:05;29.48;;;11.93;;
76103;SDS011;64831;44.870;37.336;2022-11-14T15:47:12;33.17;;;11.88;;
76103;SDS011;64831;44.870;37.336;2022-11-14T15:50:04;24.98;;;11.05;;
76103;SDS011;64831;44.870;37.336;2022-11-14T15:53:15;20.67;;;9.55;;
76103;SDS011;64831;44.870;37.336;2022-11-14T15:56:00;22.67;;;8.75;;
76103;SDS011;64831;44.870;37.336;2022-11-14T15:58:45;23.58;;;8.88;;
76103;SDS011;64831;44.870;37.336;2022-11-14T16:01:30;22.45;;;9.15;;
76103;SDS011;64831;44.870;37.336;2022-11-14T16:04:18;19.65;;;8.80;;
76103;SDS011;64831;44.870;37.336;2022-11-14T16:07:04;22.40;;;9.68;;
76103;SDS011;64831;44.870;37.336;2022-11-14T16:09:49;22.98;;;9.75;;
76103;SDS011;64831;44.870;37.336;2022-11-14T16:12:34;23.60;;;9.63;;
76103;SDS011;64831;44.870;37.336;2022-11-14T16:15:19;22.58;;;9.50;;
76103;SDS011;64831;44.870;37.336;2022-11-14T16:18:04;23.20;;;10.30;;
76103;SDS011;64831;44.870;37.336;2022-11-14T16:20:49;24.80;;;9.70;;
76103;SDS011;64831;44.870;37.336;2022-11-14T16:23:34;28.35;;;9.07;;
76103;SDS011;64831;44.870;37.336;2022-11-14T16:26:19;30.15;;;10.13;;
76103;SDS011;64831;44.870;37.336;2022-11-14T16:29:03;26.83;;;10.60;;
76103;SDS011;64831;44.870;37.336;2022-11-14T16:31:48;23.70;;;9.70;;
76103;SDS011;64831;44.870;37.336;2022-11-14T16:34:34;22.58;;;9.77;;
76103;SDS011;64831;44.870;37.336;2022-11-14T16:37:18;26.73;;;9.85;;
76103;SDS011;64831;44.870;37.336;2022-11-14T16:40:03;23.23;;;9.90;;
76103;SDS011;64831;44.870;37.336;2022-11-14T16:42:48;24.27;;;10.50;;
76103;SDS011;64831;44.870;37.336;2022-11-14T16:45:33;28.42;;;11.43;;
76103;SDS011;64831;44.870;37.336;2022-11-14T16:48:22;24.77;;;10.45;;
76103;SDS011;64831;44.870;37.336;2022-11-14T16:51:07;29.88;;;10.95;;
76103;SDS011;64831;44.870;37.336;2022-11-14T16:53:55;27.48;;;10.13;;
76103;SDS011;64831;44.870;37.336;2022-11-14T16:56:39;31.15;;;11.40;;
76103;SDS011;64831;44.870;37.336;2022-11-14T16:59:24;31.73;;;13.50;;
76103;SDS011;64831;44.870;37.336;2022-11-14T17:02:12;27.95;;;10.55;;
76103;SDS011;64831;44.870;37.336;2022-11-14T17:05:01;24.10;;;10.73;;
76103;SDS011;64831;44.870;37.336;2022-11-14T17:07:45;30.23;;;12.23;;
76103;SDS011;64831;44.870;37.336;2022-11-14T17:10:30;27.27;;;11.07;;
76103;SDS011;64831;44.870;37.336;2022-11-14T17:13:14;23.58;;;10.63;;
76103;SDS011;64831;44.870;37.336;2022-11-14T17:16:02;27.20;;;10.82;;
76103;SDS011;64831;44.870;37.336;2022-11-14T17:18:51;29.95;;;12.82;;
76103;SDS011;64831;44.870;37.336;2022-11-14T17:21:37;24.23;;;10.52;;
76103;SDS011;64831;44.870;37.336;2022-11-14T17:24:22;24.23;;;10.27;;
76103;SDS011;64831;44.870;37.336;2022-11-14T17:27:06;29.45;;;10.65;;
76103;SDS011;64831;44.870;37.336;2022-11-14T17:29:51;23.00;;;10.70;;
76103;SDS011;64831;44.870;37.336;2022-11-14T17:32:35;27.77;;;10.52;;
76103;SDS011;64831;44.870;37.336;2022-11-14T17:35:20;21.67;;;10.48;;
76103;SDS011;64831;44.870;37.336;2022-11-14T17:38:04;26.42;;;11.02;;
76103;SDS011;64831;44.870;37.336;2022-11-14T17:40:55;22.95;;;9.50;;
76103;SDS011;64831;44.870;37.336;2022-11-14T17:43:40;30.48;;;12.50;;
76103;SDS011;64831;44.870;37.336;2022-11-14T17:46:25;34.50;;;13.13;;
76103;SDS011;64831;44.870;37.336;2022-11-14T17:49:09;39.38;;;15.55;;
76103;SDS011;64831;44.870;37.336;2022-11-14T17:51:54;38.85;;;15.40;;
76103;SDS011;64831;44.870;37.336;2022-11-14T17:54:38;40.70;;;15.48;;
76103;SDS011;64831;44.870;37.336;2022-11-14T17:57:23;29.15;;;12.55;;
76103;SDS011;64831;44.870;37.336;2022-11-14T18:00:08;35.97;;;14.40;;
76103;SDS011;64831;44.870;37.336;2022-11-14T18:02:52;30.75;;;12.57;;
76103;SDS011;64831;44.870;37.336;2022-11-14T18:05:37;38.80;;;14.82;;
76103;SDS011;64831;44.870;37.336;2022-11-14T18:08:21;33.35;;;15.07;;
76103;SDS011;64831;44.870;37.336;2022-11-14T18:11:06;33.08;;;13.38;;
76103;SDS011;64831;44.870;37.336;2022-11-14T18:13:54;29.45;;;13.00;;
76103;SDS011;64831;44.870;37.336;2022-11-14T18:16:41;30.23;;;13.02;;
76103;SDS011;64831;44.870;37.336;2022-11-14T18:19:26;26.52;;;10.45;;
76103;SDS011;64831;44.870;37.336;2022-11-14T18:22:10;25.63;;;11.25;;
76103;SDS011;64831;44.870;37.336;2022-11-14T18:24:54;26.40;;;9.43;;
76103;SDS011;64831;44.870;37.336;2022-11-14T18:27:39;22.15;;;10.75;;
76103;SDS011;64831;44.870;37.336;2022-11-14T18:30:23;30.27;;;11.85;;
76103;SDS011;64831;44.870;37.336;2022-11-14T18:33:08;21.08;;;9.27;;
76103;SDS011;64831;44.870;37.336;2022-11-14T18:35:59;25.17;;;9.93;;
76103;SDS011;64831;44.870;37.336;2022-11-14T18:38:44;26.73;;;11.68;;
76103;SDS011;64831;44.870;37.336;2022-11-14T18:41:29;27.52;;;10.55;;
76103;SDS011;64831;44.870;37.336;2022-11-14T18:44:13;24.27;;;10.48;;
76103;SDS011;64831;44.870;37.336;2022-11-14T18:46:58;17.13;;;7.68;;
76103;SDS011;64831;44.870;37.336;2022-11-14T18:49:42;20.23;;;8.98;;
76103;SDS011;64831;44.870;37.336;2022-11-14T18:52:27;17.35;;;7.78;;
76103;SDS011;64831;44.870;37.336;2022-11-14T18:55:11;21.35;;;9.23;;
76103;SDS011;64831;44.870;37.336;2022-11-14T18:57:56;16.95;;;7.70;;
76103;SDS011;64831;44.870;37.336;2022-11-14T19:00:40;14.55;;;6.72;;
76103;SDS011;64831;44.870;37.336;2022-11-14T19:03:25;15.23;;;6.80;;
76103;SDS011;64831;44.870;37.336;2022-11-14T19:06:11;18.63;;;7.30;;
76103;SDS011;64831;44.870;37.336;2022-11-14T19:08:57;13.32;;;5.85;;
76103;SDS011;64831;44.870;37.336;2022-11-14T19:11:42;14.38;;;7.30;;
76103;SDS011;64831;44.870;37.336;2022-11-14T19:14:45;17.85;;;7.00;;
76103;SDS011;64831;44.870;37.336;2022-11-14T19:17:30;14.68;;;5.07;;
76103;SDS011;64831;44.870;37.336;2022-11-14T19:20:15;15.63;;;6.32;;
76103;SDS011;64831;44.870;37.336;2022-11-14T19:22:59;19.23;;;5.88;;
76103;SDS011;64831;44.870;37.336;2022-11-14T19:25:47;16.20;;;7.65;;
76103;SDS011;64831;44.870;37.336;2022-11-14T19:28:32;15.55;;;6.18;;
76103;SDS011;64831;44.870;37.336;2022-11-14T19:31:16;16.90;;;6.75;;
76103;SDS011;64831;44.870;37.336;2022-11-14T19:34:01;13.30;;;6.53;;
76103;SDS011;64831;44.870;37.336;2022-11-14T19:36:46;15.15;;;7.28;;
76103;SDS011;64831;44.870;37.336;2022-11-14T19:39:30;16.20;;;7.25;;
76103;SDS011;64831;44.870;37.336;2022-11-14T19:42:15;12.75;;;6.22;;
76103;SDS011;64831;44.870;37.336;2022-11-14T19:44:59;14.65;;;7.03;;
76103;SDS011;64831;44.870;37.336;2022-11-14T19:47:44;14.38;;;6.53;;
76103;SDS011;64831;44.870;37.336;2022-11-14T19:50:28;15.60;;;6.65;;
76103;SDS011;64831;44.870;37.336;2022-11-14T19:53:13;20.27;;;7.88;;
76103;SDS011;64831;44.870;37.336;2022-11-14T19:56:02;15.60;;;6.97;;
76103;SDS011;64831;44.870;37.336;2022-11-14T19:58:48;11.23;;;5.47;;
76103;SDS011;64831;44.870;37.336;2022-11-14T20:01:34;14.40;;;6.88;;
76103;SDS011;64831;44.870;37.336;2022-11-14T20:04:18;17.33;;;5.95;;
76103;SDS011;64831;44.870;37.336;2022-11-14T20:07:02;16.23;;;6.25;;
76103;SDS011;64831;44.870;37.336;2022-11-14T20:09:47;15.23;;;5.93;;
76103;SDS011;64831;44.870;37.336;2022-11-14T20:12:32;13.63;;;5.40;;
76103;SDS011;64831;44.870;37.336;2022-11-14T20:15:16;7.93;;;3.72;;
76103;SDS011;64831;44.870;37.336;2022-11-14T20:18:01;13.38;;;4.90;;
76103;SDS011;64831;44.870;37.336;2022-11-14T20:20:45;11.55;;;4.75;;
76103;SDS011;64831;44.870;37.336;2022-11-14T20:23:30;13.05;;;5.40;;
76103;SDS011;64831;44.870;37.336;2022-11-14T20:26:16;11.23;;;4.78;;
76103;SDS011;64831;44.870;37.336;2022-11-14T20:29:01;8.50;;;4.30;;
76103;SDS011;64831;44.870;37.336;2022-11-14T20:31:45;13.88;;;5.60;;
76103;SDS011;64831;44.870;37.336;2022-11-14T20:34:30;13.50;;;5.80;;
76103;SDS011;64831;44.870;37.336;2022-11-14T20:37:14;11.48;;;4.32;;
76103;SDS011;64831;44.870;37.336;2022-11-14T20:39:59;11.30;;;4.95;;
76103;SDS011;64831;44.870;37.336;2022-11-14T20:42:47;11.05;;;4.72;;
76103;SDS011;64831;44.870;37.336;2022-11-14T20:45:32;8.65;;;3.83;;
76103;SDS011;64831;44.870;37.336;2022-11-14T20:48:16;9.48;;;3.78;;
76103;SDS011;64831;44.870;37.336;2022-11-14T20:51:05;10.05;;;4.07;;
76103;SDS011;64831;44.870;37.336;2022-11-14T20:53:52;7.60;;;3.80;;
76103;SDS011;64831;44.870;37.336;2022-11-14T20:56:38;8.10;;;4.22;;
76103;SDS011;64831;44.870;37.336;2022-11-14T20:59:22;15.73;;;5.07;;
76103;SDS011;64831;44.870;37.336;2022-11-14T21:02:08;13.18;;;4.85;;
76103;SDS011;64831;44.870;37.336;2022-11-14T21:04:55;12.15;;;4.07;;
76103;SDS011;64831;44.870;37.336;2022-11-14T21:07:39;8.13;;;3.60;;
76103;SDS011;64831;44.870;37.336;2022-11-14T21:10:23;11.70;;;3.65;;
76103;SDS011;64831;44.870;37.336;2022-11-14T21:13:26;11.52;;;4.20;;
76103;SDS011;64831;44.870;37.336;2022-11-14T21:19:31;8.70;;;3.85;;
76103;SDS011;64831;44.870;37.336;2022-11-14T21:22:15;6.72;;;2.25;;
76103;SDS011;64831;44.870;37.336;2022-11-14T21:25:00;8.05;;;3.20;;
76103;SDS011;64831;44.870;37.336;2022-11-14T21:27:44;11.18;;;4.32;;
76103;SDS011;64831;44.870;37.336;2022-11-14T21:30:32;12.38;;;3.83;;
76103;SDS011;64831;44.870;37.336;2022-11-14T21:33:17;8.80;;;3.60;;
76103;SDS011;64831;44.870;37.336;2022-11-14T21:36:04;9.68;;;4.07;;
76103;SDS011;64831;44.870;37.336;2022-11-14T21:38:49;9.00;;;4.05;;
76103;SDS011;64831;44.870;37.336;2022-11-14T21:41:34;10.88;;;4.22;;
76103;SDS011;64831;44.870;37.336;2022-11-14T21:44:18;10.27;;;4.05;;
76103;SDS011;64831;44.870;37.336;2022-11-14T21:47:03;10.02;;;4.07;;
76103;SDS011;64831;44.870;37.336;2022-11-14T21:49:48;12.55;;;3.90;;
76103;SDS011;64831;44.870;37.336;2022-11-14T21:52:33;9.05;;;4.20;;
76103;SDS011;64831;44.870;37.336;2022-11-14T21:55:17;5.50;;;3.53;;
76103;SDS011;64831;44.870;37.336;2022-11-14T21:58:02;9.57;;;4.00;;
76103;SDS011;64831;44.870;37.336;2022-11-14T22:00:46;10.85;;;4.43;;
76103;SDS011;64831;44.870;37.336;2022-11-14T22:03:31;8.70;;;4.13;;
76103;SDS011;64831;44.870;37.336;2022-11-14T22:06:34;8.60;;;4.47;;
76103;SDS011;64831;44.870;37.336;2022-11-14T22:09:18;8.45;;;3.75;;
76103;SDS011;64831;44.870;37.336;2022-11-14T22:12:03;10.68;;;4.00;;
76103;SDS011;64831;44.870;37.336;2022-11-14T22:14:48;11.10;;;3.90;;
76103;SDS011;64831;44.870;37.336;2022-11-14T22:17:32;9.43;;;3.42;;
76103;SDS011;64831;44.870;37.336;2022-11-14T22:20:17;7.20;;;3.50;;
76103;SDS011;64831;44.870;37.336;2022-11-14T22:23:02;11.02;;;3.97;;
76103;SDS011;64831;44.870;37.336;2022-11-14T22:26:05;7.85;;;3.45;;
76103;SDS011;64831;44.870;37.336;2022-11-14T22:28:49;7.60;;;3.42;;
76103;SDS011;64831;44.870;37.336;2022-11-14T22:31:34;9.23;;;3.92;;
76103;SDS011;64831;44.870;37.336;2022-11-14T22:34:19;8.02;;;3.40;;
76103;SDS011;64831;44.870;37.336;2022-11-14T22:37:04;10.20;;;3.97;;
76103;SDS011;64831;44.870;37.336;2022-11-14T22:39:48;5.18;;;3.08;;
76103;SDS011;64831;44.870;37.336;2022-11-14T22:42:33;6.65;;;3.33;;
76103;SDS011;64831;44.870;37.336;2022-11-14T22:45:17;3.42;;;1.98;;
76103;SDS011;64831;44.870;37.336;2022-11-14T22:48:02;7.25;;;3.22;;
76103;SDS011;64831;44.870;37.336;2022-11-14T22:50:46;11.35;;;3.50;;
76103;SDS011;64831;44.870;37.336;2022-11-14T22:53:39;8.30;;;3.67;;
76103;SDS011;64831;44.870;37.336;2022-11-14T22:56:25;11.90;;;3.53;;
76103;SDS011;64831;44.870;37.336;2022-11-14T22:59:11;7.78;;;2.95;;
76103;SDS011;64831;44.870;37.336;2022-11-14T23:01:55;7.45;;;2.83;;
76103;SDS011;64831;44.870;37.336;2022-11-14T23:04:40;8.27;;;2.67;;
76103;SDS011;64831;44.870;37.336;2022-11-14T23:07:24;7.38;;;2.72;;
76103;SDS011;64831;44.870;37.336;2022-11-14T23:10:09;6.15;;;2.72;;
76103;SDS011;64831;44.870;37.336;2022-11-14T23:12:54;6.60;;;2.97;;
76103;SDS011;64831;44.870;37.336;2022-11-14T23:15:38;4.40;;;2.50;;
76103;SDS011;64831;44.870;37.336;2022-11-14T23:18:29;7.28;;;2.72;;